createdAt,value
2022-09-15T00:01:13.447Z,100
2022-09-15T00:03:39.534Z,100
2022-09-15T00:06:04.647Z,100
2022-09-15T00:08:30.757Z,100
2022-09-15T00:10:56.844Z,100
2022-09-15T00:13:22.958Z,100
2022-09-15T00:15:49.019Z,100
2022-09-15T00:18:15.113Z,100
2022-09-15T00:20:41.216Z,100
2022-09-15T00:23:07.309Z,100
2022-09-15T00:25:33.412Z,100
2022-09-15T00:27:59.504Z,100
2022-09-15T00:30:25.601Z,100
2022-09-15T00:32:51.714Z,100
2022-09-15T00:35:17.775Z,100
2022-09-15T00:37:42.892Z,100
2022-09-15T00:40:08.993Z,100
2022-09-15T00:42:35.089Z,100
2022-09-15T00:45:01.197Z,100
2022-09-15T00:47:27.306Z,100
2022-09-15T00:49:53.372Z,100
2022-09-15T00:52:19.472Z,100
2022-09-15T00:54:45.563Z,100
2022-09-15T00:57:11.665Z,100
2022-09-15T00:59:37.753Z,100
2022-09-15T01:02:03.872Z,100
2022-09-15T01:04:29.995Z,100
2022-09-15T01:06:56.034Z,100
2022-09-15T01:09:21.159Z,100
2022-09-15T01:11:47.249Z,100
2022-09-15T01:14:13.341Z,100
2022-09-15T01:16:39.442Z,100
2022-09-15T01:19:05.530Z,100
2022-09-15T01:21:31.634Z,100
2022-09-15T01:23:57.722Z,100
2022-09-15T01:26:23.836Z,100
2022-09-15T01:28:49.916Z,100
2022-09-15T01:31:16.088Z,100
2022-09-15T01:33:42.112Z,100
2022-09-15T01:36:08.196Z,100
2022-09-15T01:38:34.285Z,100
2022-09-15T01:40:59.410Z,100
2022-09-15T01:43:25.488Z,100
2022-09-15T01:45:51.591Z,100
2022-09-15T01:48:17.692Z,100
2022-09-15T01:50:43.787Z,100
2022-09-15T01:53:09.873Z,100
2022-09-15T01:55:35.974Z,100
2022-09-15T01:58:02.080Z,100
2022-09-15T02:00:28.159Z,100
2022-09-15T02:02:54.267Z,100
2022-09-15T02:05:20.363Z,100
2022-09-15T02:07:46.450Z,100
2022-09-15T02:10:12.587Z,100
2022-09-15T02:12:37.657Z,100
2022-09-15T02:15:03.768Z,100
2022-09-15T02:17:29.858Z,100
2022-09-15T02:19:55.957Z,99.7
2022-09-15T02:22:22.047Z,99
2022-09-15T02:24:48.138Z,98.5
2022-09-15T02:27:14.226Z,98
2022-09-15T02:29:40.329Z,97.2
2022-09-15T02:32:06.417Z,97.3
2022-09-15T02:34:32.510Z,96.7
2022-09-15T02:36:58.608Z,96.1
2022-09-15T02:39:24.710Z,96.1
2022-09-15T02:41:50.794Z,96
2022-09-15T02:44:15.905Z,95.9
2022-09-15T02:46:42.006Z,95.9
2022-09-15T02:49:08.096Z,95.8
2022-09-15T02:51:34.193Z,95.5
2022-09-15T02:54:00.312Z,95.5
2022-09-15T02:56:26.395Z,95.8
2022-09-15T02:58:52.482Z,95.7
2022-09-15T03:01:18.570Z,95.6
2022-09-15T03:03:44.681Z,95.3
2022-09-15T03:06:10.768Z,95.6
2022-09-15T03:08:35.879Z,95.5
2022-09-15T03:11:01.980Z,95.2
2022-09-15T03:13:28.089Z,95.4
2022-09-15T03:15:54.175Z,95.5
2022-09-15T03:18:20.251Z,95.4
2022-09-15T03:20:46.351Z,95.1
2022-09-15T03:23:12.443Z,94.8
2022-09-15T03:25:38.550Z,94.7
2022-09-15T03:28:04.899Z,94.7
2022-09-15T03:30:30.739Z,94.6
2022-09-15T03:32:56.848Z,95
2022-09-15T03:35:22.916Z,95
2022-09-15T03:37:49.030Z,95.1
2022-09-15T03:40:14.124Z,94.8
2022-09-15T03:42:40.230Z,94.9
2022-09-15T03:45:06.330Z,95.2
2022-09-15T03:47:32.411Z,95
2022-09-15T03:49:58.505Z,94.9
2022-09-15T03:52:24.611Z,95.1
2022-09-15T03:54:50.714Z,94.7
2022-09-15T03:57:16.799Z,94.5
2022-09-15T03:59:42.963Z,94.9
2022-09-15T04:02:09.009Z,94.7
2022-09-15T04:04:35.087Z,94.7
2022-09-15T04:07:01.253Z,94.7
2022-09-15T04:09:27.282Z,94.5
2022-09-15T04:11:52.382Z,94.5
2022-09-15T04:14:18.515Z,94.8
2022-09-15T04:16:44.622Z,94.8
2022-09-15T04:19:10.691Z,94.9
2022-09-15T04:21:36.810Z,94.5
2022-09-15T04:24:02.858Z,94.6
2022-09-15T04:26:28.954Z,94.4
2022-09-15T04:28:55.036Z,94.2
2022-09-15T04:31:21.130Z,93.7
2022-09-15T04:33:47.253Z,93.6
2022-09-15T04:36:13.352Z,93.4
2022-09-15T04:38:39.416Z,93.3
2022-09-15T04:41:05.521Z,93.3
2022-09-15T04:43:30.635Z,93.2
2022-09-15T04:45:56.723Z,93
2022-09-15T04:48:22.816Z,92.8
2022-09-15T04:50:48.950Z,92.7
2022-09-15T04:53:15.019Z,93.1
2022-09-15T04:55:41.103Z,93.5
2022-09-15T04:58:07.194Z,94.2
2022-09-15T05:00:33.294Z,94.3
2022-09-15T05:02:59.383Z,94.8
2022-09-15T05:05:25.490Z,94.5
2022-09-15T05:07:51.585Z,94.5
2022-09-15T05:10:17.665Z,94.4
2022-09-15T05:12:43.832Z,94.5
2022-09-15T05:15:08.884Z,94.3
2022-09-15T05:17:34.971Z,93.9
2022-09-15T05:20:01.111Z,93.6
2022-09-15T05:22:27.217Z,93.4
2022-09-15T05:24:53.255Z,93.5
2022-09-15T05:27:19.355Z,93.4
2022-09-15T05:29:45.453Z,93.7
2022-09-15T05:32:11.550Z,93.4
2022-09-15T05:34:37.649Z,93.2
2022-09-15T05:37:03.837Z,92.8
2022-09-15T05:39:29.959Z,92.8
2022-09-15T05:41:55.922Z,92.7
2022-09-15T05:44:22.023Z,92.3
2022-09-15T05:46:47.129Z,92.5
2022-09-15T05:49:13.228Z,93.1
2022-09-15T05:51:39.349Z,93.3
2022-09-15T05:54:05.465Z,93.8
2022-09-15T05:56:31.507Z,94.1
2022-09-15T05:58:57.662Z,94.2
2022-09-15T06:01:23.708Z,94.2
2022-09-15T06:03:49.815Z,93.7
2022-09-15T06:06:15.899Z,93.6
2022-09-15T06:08:41.985Z,93.3
2022-09-15T06:11:08.078Z,93.4
2022-09-15T06:13:34.181Z,93.4
2022-09-15T06:16:00.261Z,93.3
2022-09-15T06:18:25.384Z,93.3
2022-09-15T06:20:51.481Z,93.4
2022-09-15T06:23:17.571Z,92.9
2022-09-15T06:25:43.659Z,92.8
2022-09-15T06:28:09.823Z,92.8
2022-09-15T06:30:35.865Z,92.7
2022-09-15T06:33:01.951Z,92.3
2022-09-15T06:35:28.045Z,92.5
2022-09-15T06:37:54.145Z,92.3
2022-09-15T06:40:20.238Z,91.5
2022-09-15T06:42:46.321Z,92
2022-09-15T06:45:12.433Z,91.6
2022-09-15T06:47:38.526Z,92.1
2022-09-15T06:50:03.631Z,92.7
2022-09-15T06:52:29.722Z,93.8
2022-09-15T06:54:55.811Z,94.1
2022-09-15T06:57:22.026Z,95.2
2022-09-15T06:59:48.142Z,96.3
2022-09-15T07:02:14.107Z,96.8
2022-09-15T07:04:40.297Z,98.1
2022-09-15T07:07:06.302Z,98.8
2022-09-15T07:09:32.389Z,99.2
2022-09-15T07:11:58.472Z,99.7
2022-09-15T07:14:24.602Z,100
2022-09-15T07:16:50.670Z,100
2022-09-15T07:19:16.774Z,100
2022-09-15T07:21:41.881Z,100
2022-09-15T07:24:07.978Z,100
2022-09-15T07:26:34.079Z,100
2022-09-15T07:29:00.191Z,100
2022-09-15T07:31:26.271Z,100
2022-09-15T07:33:52.362Z,100
2022-09-15T07:36:18.443Z,100
2022-09-15T07:38:44.545Z,100
2022-09-15T07:41:10.630Z,100
2022-09-15T07:43:36.720Z,100
2022-09-15T07:46:02.837Z,100
2022-09-15T07:48:28.934Z,100
2022-09-15T07:50:55.026Z,100
2022-09-15T07:53:20.134Z,100
2022-09-15T07:55:46.219Z,100
2022-09-15T07:58:12.315Z,100
2022-09-15T08:00:38.402Z,100
2022-09-15T08:03:04.530Z,100
2022-09-15T08:05:30.616Z,100
2022-09-15T08:07:56.705Z,100
2022-09-15T08:10:22.800Z,100
2022-09-15T08:12:48.882Z,100
2022-09-15T08:15:14.983Z,100
2022-09-15T08:17:41.096Z,100
2022-09-15T08:20:07.171Z,100
2022-09-15T08:22:33.277Z,100
2022-09-15T08:24:58.418Z,100
2022-09-15T08:27:24.476Z,100
2022-09-15T08:29:50.684Z,100
2022-09-15T08:32:16.654Z,100
2022-09-15T08:34:42.749Z,100
2022-09-15T08:37:08.862Z,100
2022-09-15T08:39:34.950Z,100
2022-09-15T08:42:01.044Z,100
2022-09-15T08:44:27.137Z,100
2022-09-15T08:46:53.272Z,100
2022-09-15T08:49:19.330Z,100
2022-09-15T08:51:45.420Z,100
2022-09-15T08:54:11.502Z,100
2022-09-15T08:56:36.642Z,100
2022-09-15T08:59:02.775Z,100
2022-09-15T09:01:28.807Z,100
2022-09-15T09:03:54.983Z,100
2022-09-15T09:06:21.022Z,100
2022-09-15T09:08:47.087Z,100
2022-09-15T09:11:13.185Z,100
2022-09-15T09:13:39.300Z,100
2022-09-15T09:16:05.406Z,100
2022-09-15T09:18:31.482Z,100
2022-09-15T09:20:57.654Z,100
2022-09-15T09:23:23.774Z,100
2022-09-15T09:25:49.826Z,100
2022-09-15T09:28:14.891Z,100
2022-09-15T09:30:40.992Z,100
2022-09-15T09:33:07.049Z,100
2022-09-15T09:35:33.159Z,100
2022-09-15T09:37:59.246Z,100
2022-09-15T09:40:25.341Z,100
2022-09-15T09:42:51.438Z,100
2022-09-15T09:45:17.582Z,100
2022-09-15T09:47:43.656Z,100
2022-09-15T09:50:09.775Z,100
2022-09-15T09:52:35.924Z,100
2022-09-15T09:55:02.032Z,100
2022-09-15T09:57:28.112Z,100
2022-09-15T09:59:53.204Z,100
2022-09-15T10:02:19.325Z,100
2022-09-15T10:04:45.335Z,100
2022-09-15T10:07:11.391Z,100
2022-09-15T10:09:37.503Z,100
2022-09-15T10:12:03.687Z,100
2022-09-15T10:14:29.728Z,100
2022-09-15T10:16:55.793Z,100
2022-09-15T10:19:21.940Z,100
2022-09-15T10:21:47.965Z,100
2022-09-15T10:24:14.060Z,100
2022-09-15T10:26:40.162Z,100
2022-09-15T10:29:06.246Z,100
2022-09-15T10:31:31.450Z,100
2022-09-15T10:33:57.605Z,100
2022-09-15T10:36:23.652Z,100
2022-09-15T10:38:49.672Z,100
2022-09-15T10:41:15.736Z,100
2022-09-15T10:43:41.870Z,100
2022-09-15T10:46:07.936Z,100
2022-09-15T10:48:34.091Z,100
2022-09-15T10:51:00.152Z,100
2022-09-15T10:53:26.234Z,100
2022-09-15T10:55:52.308Z,100
2022-09-15T10:58:18.469Z,100
2022-09-15T11:00:44.641Z,100
2022-09-15T11:03:09.712Z,100
2022-09-15T11:05:35.738Z,100
2022-09-15T11:08:01.800Z,100
2022-09-15T11:10:27.975Z,100
2022-09-15T11:12:54.006Z,100
2022-09-15T11:15:20.151Z,100
2022-09-15T11:17:45.244Z,100
2022-09-15T11:20:11.309Z,100
2022-09-15T11:22:37.491Z,100
2022-09-15T11:25:03.491Z,100
2022-09-15T11:27:29.600Z,100
2022-09-15T11:29:55.764Z,100
2022-09-15T11:32:21.796Z,100
2022-09-15T11:34:47.902Z,100
2022-09-15T11:37:13.972Z,100
2022-09-15T11:39:40.058Z,100
2022-09-15T11:42:06.231Z,100
2022-09-15T11:44:32.256Z,100
2022-09-15T11:46:58.441Z,100
2022-09-15T11:49:23.453Z,100
2022-09-15T11:51:49.580Z,100
2022-09-15T11:54:15.670Z,100
2022-09-15T11:56:41.768Z,100
2022-09-15T11:59:07.857Z,100
2022-09-15T12:01:33.951Z,100
2022-09-15T12:04:00.137Z,100
2022-09-15T12:06:26.133Z,100
2022-09-15T12:08:52.229Z,100
2022-09-15T12:11:18.424Z,100
2022-09-15T12:13:44.557Z,100
2022-09-15T12:16:10.510Z,100
2022-09-15T12:18:36.713Z,100
2022-09-15T12:21:01.712Z,100
2022-09-15T12:23:27.813Z,100
2022-09-15T12:25:53.914Z,100
2022-09-15T12:28:20.119Z,100
2022-09-15T12:30:46.120Z,100
2022-09-15T12:33:12.263Z,100
2022-09-15T12:35:38.365Z,100
2022-09-15T12:38:04.450Z,100
2022-09-15T12:40:30.532Z,100
2022-09-15T12:42:56.549Z,100
2022-09-15T12:45:22.644Z,100
2022-09-15T12:47:48.817Z,100
2022-09-15T12:50:14.845Z,100
2022-09-15T12:52:39.970Z,100
2022-09-15T12:55:06.058Z,100
2022-09-15T12:57:32.156Z,100
2022-09-15T12:59:58.262Z,99.6
2022-09-15T13:02:24.343Z,98.5
2022-09-15T13:04:50.572Z,97.8
2022-09-15T13:07:16.602Z,97.7
2022-09-15T13:09:42.660Z,98.4
2022-09-15T13:12:08.717Z,97.9
2022-09-15T13:14:34.818Z,97.4
2022-09-15T13:17:01.014Z,97.1
2022-09-15T13:19:27.081Z,96.8
2022-09-15T13:21:53.095Z,96
2022-09-15T13:24:18.193Z,96.5
2022-09-15T13:26:44.292Z,97.5
2022-09-15T13:29:10.445Z,98.1
2022-09-15T13:31:36.504Z,98.7
2022-09-15T13:34:02.582Z,99.3
2022-09-15T13:36:28.672Z,99.2
2022-09-15T13:38:54.784Z,100
2022-09-15T13:41:20.876Z,99.5
2022-09-15T13:43:46.973Z,98.8
2022-09-15T13:46:13.078Z,98.8
2022-09-15T13:48:39.205Z,97.7
2022-09-15T13:51:05.306Z,98.2
2022-09-15T13:55:57.510Z,98.1
2022-09-15T13:58:22.562Z,95.7
2022-09-15T14:00:48.696Z,94.1
2022-09-15T14:03:14.819Z,93.2
2022-09-15T14:05:40.907Z,91.8
2022-09-15T14:08:06.925Z,90
2022-09-15T14:10:33.069Z,86.3
2022-09-15T14:12:59.155Z,89
2022-09-15T14:15:25.229Z,89.3
2022-09-15T14:17:51.317Z,89.8
2022-09-15T14:20:17.402Z,92
2022-09-15T14:22:43.522Z,91.7
2022-09-15T14:25:09.605Z,92
2022-09-15T14:27:35.851Z,93
2022-09-15T14:30:00.903Z,93.3
2022-09-15T14:32:26.917Z,88.4
2022-09-15T14:34:53.132Z,84.6
2022-09-15T14:37:19.224Z,83.6
2022-09-15T14:39:45.269Z,83
2022-09-15T14:42:11.350Z,83.7
2022-09-15T14:44:37.513Z,82.3
2022-09-15T14:47:03.625Z,80
2022-09-15T14:49:29.703Z,82.9
2022-09-15T14:51:55.671Z,82
2022-09-15T14:54:21.747Z,81.6
2022-09-15T14:56:48.001Z,78.4
2022-09-15T14:59:14.078Z,74.2
2022-09-15T15:01:39.204Z,74.6
2022-09-15T15:04:05.293Z,75.3
2022-09-15T15:06:31.241Z,76.5
2022-09-15T15:08:57.502Z,77.5
2022-09-15T15:11:23.458Z,80.3
2022-09-15T15:13:49.541Z,77.1
2022-09-15T15:16:15.638Z,79
2022-09-15T15:18:41.867Z,79.4
2022-09-15T15:21:07.982Z,82.9
2022-09-15T15:23:33.961Z,84.1
2022-09-15T15:26:00.109Z,84.1
2022-09-15T15:28:26.101Z,86.2
2022-09-15T15:30:52.222Z,85.5
2022-09-15T15:33:17.318Z,84.7
2022-09-15T15:35:43.415Z,88
2022-09-15T15:38:09.525Z,89.4
2022-09-15T15:40:35.603Z,91.8
2022-09-15T15:43:01.765Z,91.5
2022-09-15T15:45:27.916Z,88.2
2022-09-15T15:47:54.008Z,85.4
2022-09-15T15:50:20.029Z,81.1
2022-09-15T15:52:46.172Z,81.4
2022-09-15T15:55:12.217Z,78.5
2022-09-15T15:57:38.286Z,76.7
2022-09-15T16:00:04.373Z,75.7
2022-09-15T16:02:30.453Z,78.3
2022-09-15T16:04:55.590Z,78.7
2022-09-15T16:07:21.675Z,78.1
2022-09-15T16:09:47.778Z,77.5
2022-09-15T16:12:13.842Z,75.7
2022-09-15T16:14:39.938Z,75.5
2022-09-15T16:17:06.038Z,77.8
2022-09-15T16:19:32.132Z,78.8
2022-09-15T16:21:58.239Z,79.8
2022-09-15T16:24:24.326Z,81.9
2022-09-15T16:26:50.431Z,81.1
2022-09-15T16:29:16.625Z,81.1
2022-09-15T16:31:42.617Z,81.5
2022-09-15T16:34:08.727Z,81.2
2022-09-15T16:36:33.813Z,83.5
2022-09-15T16:38:59.901Z,82.7
2022-09-15T16:41:26.013Z,82.4
2022-09-15T16:43:52.104Z,83.8
2022-09-15T16:46:18.192Z,85
2022-09-15T16:48:44.288Z,85.2
2022-09-15T16:51:10.386Z,85.8
2022-09-15T16:53:36.476Z,86
2022-09-15T16:56:02.583Z,87.5
2022-09-15T16:58:28.667Z,88.8
2022-09-15T17:00:54.793Z,89.5
2022-09-15T17:03:20.869Z,89.8
2022-09-15T17:05:46.961Z,91.2
2022-09-15T17:08:12.067Z,91
2022-09-15T17:10:38.176Z,91.7
2022-09-15T17:13:04.264Z,92.2
2022-09-15T17:15:30.366Z,92.7
2022-09-15T17:17:56.453Z,92.5
2022-09-15T17:20:22.544Z,92
2022-09-15T17:22:48.633Z,91
2022-09-15T17:25:14.731Z,89.7
2022-09-15T17:27:40.829Z,90.7
2022-09-15T17:30:06.928Z,90.3
2022-09-15T17:32:33.028Z,89.9
2022-09-15T17:34:59.121Z,90
2022-09-15T17:37:25.222Z,91.1
2022-09-15T17:39:50.325Z,91.2
2022-09-15T17:42:16.412Z,91.1
2022-09-15T17:44:42.519Z,89.6
2022-09-15T17:47:08.605Z,89
2022-09-15T17:49:34.711Z,89.7
2022-09-15T17:52:00.793Z,91.4
2022-09-15T17:54:26.910Z,92.9
2022-09-15T17:56:52.993Z,94
2022-09-15T17:59:19.078Z,94.6
2022-09-15T18:01:45.161Z,95.1
2022-09-15T18:04:11.256Z,95.8
2022-09-15T18:06:37.382Z,96
2022-09-15T18:09:03.544Z,96.4
2022-09-15T18:11:28.560Z,96.6
2022-09-15T18:13:54.661Z,96.5
2022-09-15T18:16:20.759Z,96.7
2022-09-15T18:18:46.859Z,97.2
2022-09-15T18:21:12.953Z,97
2022-09-15T18:23:39.045Z,97.1
2022-09-15T18:26:05.141Z,97.3
2022-09-15T18:28:31.243Z,97.5
2022-09-15T18:30:57.578Z,97.7
2022-09-15T18:33:23.432Z,97.8
2022-09-15T18:35:49.510Z,97.8
2022-09-15T18:38:15.622Z,98
2022-09-15T18:40:41.719Z,98.5
2022-09-15T18:43:06.820Z,99
2022-09-15T18:45:32.930Z,99.3
2022-09-15T18:47:59.008Z,99.2
2022-09-15T18:50:25.095Z,99.5
2022-09-15T18:52:51.208Z,99.6
2022-09-15T18:55:17.305Z,99.7
2022-09-15T18:57:43.423Z,99.5
2022-09-15T19:00:09.484Z,99.3
2022-09-15T19:02:35.616Z,99.3
2022-09-15T19:05:01.698Z,99.1
2022-09-15T19:07:27.773Z,99.4
2022-09-15T19:09:53.869Z,99.6
2022-09-15T19:12:19.975Z,99.7
2022-09-15T19:14:45.071Z,100
2022-09-15T19:17:11.170Z,100
2022-09-15T19:19:37.323Z,100
2022-09-15T19:22:03.384Z,100
2022-09-15T19:24:29.474Z,100
2022-09-15T19:26:54.575Z,100
2022-09-15T19:29:20.683Z,100
2022-09-15T19:31:46.771Z,100
2022-09-15T19:34:12.867Z,100
2022-09-15T19:36:38.965Z,100
2022-09-15T19:39:05.061Z,100
2022-09-15T19:41:31.158Z,100
2022-09-15T19:43:57.253Z,100
2022-09-15T19:46:23.344Z,100
2022-09-15T19:48:49.567Z,100
2022-09-15T19:51:15.679Z,100
2022-09-15T19:53:41.750Z,100
2022-09-15T19:56:07.849Z,100
2022-09-15T19:58:32.889Z,100
2022-09-15T20:00:59.037Z,100
2022-09-15T20:03:25.122Z,100
2022-09-15T20:05:51.254Z,100
2022-09-15T20:08:17.302Z,100
2022-09-15T20:10:43.306Z,100
2022-09-15T20:13:09.417Z,100
2022-09-15T20:15:35.500Z,100
2022-09-15T20:18:01.629Z,100
2022-09-15T20:20:27.682Z,100
2022-09-15T20:22:53.801Z,100
2022-09-15T20:25:19.878Z,100
2022-09-15T20:27:45.988Z,100
2022-09-15T20:30:11.091Z,100
2022-09-15T20:32:37.203Z,100
2022-09-15T20:35:03.284Z,100
2022-09-15T20:37:29.386Z,100
2022-09-15T20:39:55.461Z,100
2022-09-15T20:42:21.565Z,100
2022-09-15T20:44:47.687Z,100
2022-09-15T20:47:13.758Z,100
2022-09-15T20:49:39.840Z,100
2022-09-15T20:52:05.929Z,100
2022-09-15T20:54:34.103Z,100
2022-09-15T20:56:58.139Z,100
2022-09-15T20:59:24.233Z,100
2022-09-15T21:01:49.327Z,100
2022-09-15T21:04:15.429Z,100
2022-09-15T21:06:41.529Z,100
2022-09-15T21:09:07.614Z,100
2022-09-15T21:11:33.714Z,100
2022-09-15T21:13:59.792Z,100
2022-09-15T21:16:25.905Z,100
2022-09-15T21:18:51.991Z,100
2022-09-15T21:21:18.077Z,100
2022-09-15T21:23:44.184Z,100
2022-09-15T21:26:10.281Z,100
2022-09-15T21:28:36.359Z,100
2022-09-15T21:31:02.477Z,100
2022-09-15T21:33:27.565Z,100
2022-09-15T21:35:53.670Z,100
2022-09-15T21:38:19.754Z,100
2022-09-15T21:40:45.869Z,100
2022-09-15T21:43:11.959Z,100
2022-09-15T21:45:38.052Z,100
2022-09-15T21:48:04.151Z,100
2022-09-15T21:50:30.244Z,100
2022-09-15T21:52:56.351Z,100
2022-09-15T21:55:22.433Z,100
2022-09-15T21:57:48.535Z,100
2022-09-15T22:00:14.627Z,100
2022-09-15T22:02:40.728Z,100
2022-09-15T22:05:05.839Z,100
2022-09-15T22:07:31.940Z,100
2022-09-15T22:09:58.035Z,100
2022-09-15T22:12:24.125Z,100
2022-09-15T22:14:50.208Z,100
2022-09-15T22:17:16.307Z,100
2022-09-15T22:19:42.399Z,100
2022-09-15T22:22:08.498Z,100
2022-09-15T22:24:34.598Z,100
2022-09-15T22:27:00.708Z,100
2022-09-15T22:29:26.794Z,100
2022-09-15T22:31:52.891Z,100
2022-09-15T22:34:18.988Z,100
2022-09-15T22:36:44.118Z,100
2022-09-15T22:39:10.191Z,100
2022-09-15T22:41:36.284Z,100
2022-09-15T22:44:02.393Z,100
2022-09-15T22:46:28.473Z,100
2022-09-15T22:48:54.581Z,100
2022-09-15T22:51:20.678Z,100
2022-09-15T22:53:46.776Z,100
2022-09-15T22:56:12.871Z,100
2022-09-15T22:58:38.961Z,100
2022-09-15T23:01:05.054Z,100
2022-09-15T23:03:31.166Z,100
2022-09-15T23:05:57.243Z,100
2022-09-15T23:08:22.362Z,100
2022-09-15T23:10:48.455Z,100
2022-09-15T23:13:14.553Z,100
2022-09-15T23:15:40.647Z,100
2022-09-15T23:18:06.756Z,100
2022-09-15T23:20:32.838Z,100
2022-09-15T23:22:58.930Z,100
2022-09-15T23:25:25.042Z,100
2022-09-15T23:27:51.139Z,100
2022-09-15T23:30:17.221Z,100
2022-09-15T23:32:43.326Z,100
2022-09-15T23:35:09.417Z,100
2022-09-15T23:37:35.527Z,100
2022-09-15T23:40:00.635Z,100
2022-09-15T23:42:26.760Z,100
2022-09-15T23:44:52.822Z,100
2022-09-15T23:47:18.915Z,100
2022-09-15T23:49:45.028Z,100
2022-09-15T23:52:11.104Z,100
2022-09-15T23:54:37.209Z,100
2022-09-15T23:57:03.285Z,100
2022-09-15T23:59:29.394Z,100
